Time;durP1;ratioP1;P1;durP2;ratioP2;P2;SDS_P1;SDS_P2;PMS_P1;PMS_P2;Temp;Humidity;BMP_temperature;BMP_pressure;BME280_temperature;BME280_humidity;BME280_pressure;Samples;Min_cycle;Max_cycle;Signal;HPM_P1;HPM_P2
2023/01/21 00:00:34;;;;;;;27.92;17.98;;;;;;;3.17;69.23;102434.03;5073287;28;20441;-74
2023/01/21 00:02:59;;;;;;;31.38;19.15;;;;;;;3.17;69.16;102439.38;5074592;28;20021;-74
2023/01/21 00:05:25;;;;;;;19.95;15.55;;;;;;;3.16;69.12;102445.72;5074424;28;20432;-73
2023/01/21 00:07:50;;;;;;;20.08;14.80;;;;;;;3.15;69.14;102446.72;5074368;28;20046;-74
2023/01/21 00:10:17;;;;;;;29.50;20.80;;;;;;;3.14;69.32;102453.03;5074246;28;20118;-74
2023/01/21 00:12:43;;;;;;;15.15;13.88;;;;;;;3.13;69.33;102456.72;5074157;28;20162;-74
2023/01/21 00:15:08;;;;;;;23.55;18.70;;;;;;;3.13;68.95;102451.38;5074425;28;20060;-74
2023/01/21 00:17:35;;;;;;;15.57;14.27;;;;;;;3.13;69.43;102459.38;5074160;28;20043;-74
2023/01/21 00:20:05;;;;;;;13.63;12.52;;;;;;;3.10;69.50;102462.34;5074104;28;20086;-74
2023/01/21 00:22:32;;;;;;;20.77;18.60;;;;;;;3.10;69.13;102462.34;5073926;28;20113;-74
2023/01/21 00:24:57;;;;;;;16.98;15.38;;;;;;;3.09;69.30;102466.00;5074376;28;20028;-74
2023/01/21 00:27:22;;;;;;;22.23;18.88;;;;;;;3.08;69.05;102467.00;5073268;28;20548;-74
2023/01/21 00:29:48;;;;;;;30.20;21.70;;;;;;;3.09;69.15;102463.34;5071701;28;20033;-74
2023/01/21 00:32:13;;;;;;;40.88;25.20;;;;;;;3.08;69.32;102467.00;5074236;28;20518;-74
2023/01/21 00:34:39;;;;;;;17.83;16.25;;;;;;;3.08;68.96;102475.03;5073674;28;20028;-74
2023/01/21 00:37:05;;;;;;;23.10;17.17;;;;;;;3.07;68.95;102476.00;5072596;28;20033;-74
2023/01/21 00:39:30;;;;;;;21.08;15.30;;;;;;;3.05;69.08;102476.16;5073782;28;20089;-74
2023/01/21 00:41:55;;;;;;;19.88;16.42;;;;;;;3.04;69.33;102483.31;5074011;28;20102;-74
2023/01/21 00:44:21;;;;;;;16.50;14.85;;;;;;;3.03;69.49;102486.97;5073554;28;20115;-73
2023/01/21 00:46:46;;;;;;;19.35;17.30;;;;;;;3.03;69.10;102492.31;5073011;28;20040;-73
2023/01/21 00:49:11;;;;;;;17.20;15.52;;;;;;;3.02;69.32;102488.00;5073352;28;20032;-73
2023/01/21 00:51:37;;;;;;;13.98;12.93;;;;;;;3.01;69.11;102501.47;5073535;28;20045;-73
2023/01/21 00:54:02;;;;;;;26.38;19.13;;;;;;;3.01;68.97;102509.47;5073545;28;20040;-73
2023/01/21 00:56:28;;;;;;;25.85;19.42;;;;;;;3.00;69.35;102508.66;5073695;28;20384;-73
2023/01/21 00:58:53;;;;;;;16.65;15.07;;;;;;;3.01;69.10;102520.16;5073661;28;20029;-73
2023/01/21 01:01:20;;;;;;;14.15;13.15;;;;;;;3.00;69.05;102526.50;5073410;28;20457;-73
2023/01/21 01:03:47;;;;;;;23.52;19.15;;;;;;;3.00;69.09;102540.69;5072444;28;20028;-73
2023/01/21 01:06:16;;;;;;;26.40;18.95;;;;;;;3.00;69.06;102531.84;5072242;28;20036;-73
2023/01/21 01:08:43;;;;;;;27.42;21.05;;;;;;;2.99;68.93;102538.97;5073445;28;20058;-73
2023/01/21 01:11:09;;;;;;;24.35;15.68;;;;;;;2.98;69.18;102537.31;5073290;28;20025;-73
2023/01/21 01:13:35;;;;;;;18.73;15.35;;;;;;;2.98;69.39;102541.81;5072555;28;20036;-73
2023/01/21 01:16:01;;;;;;;14.73;12.57;;;;;;;2.97;68.94;102546.31;5073325;28;20051;-73
2023/01/21 01:18:29;;;;;;;27.85;21.10;;;;;;;2.97;69.02;102545.47;5073195;28;20028;-73
2023/01/21 01:20:55;;;;;;;19.23;16.02;;;;;;;2.96;69.34;102555.31;5073533;28;20453;-73
2023/01/21 01:23:20;;;;;;;15.73;14.55;;;;;;;2.95;69.29;102548.28;5071984;28;20097;-73
2023/01/21 01:26:00;;;;;;;25.40;20.65;;;;;;;2.95;69.33;102564.31;5073691;28;20036;-73
2023/01/21 01:28:26;;;;;;;24.02;15.48;;;;;;;2.94;68.90;102559.94;5073242;28;20032;-73
2023/01/21 01:30:51;;;;;;;13.95;12.55;;;;;;;2.95;68.96;102560.81;5072923;28;20033;-73
2023/01/21 01:33:18;;;;;;;19.67;17.25;;;;;;;2.93;68.97;102568.94;5072782;28;20036;-73
2023/01/21 01:35:46;;;;;;;20.75;16.83;;;;;;;2.93;68.92;102565.44;5073131;28;20041;-73
2023/01/21 01:38:12;;;;;;;17.27;15.68;;;;;;;2.92;69.33;102577.94;5073000;28;20033;-73
2023/01/21 01:40:39;;;;;;;15.13;13.60;;;;;;;2.93;69.09;102578.78;5072696;28;20068;-73
2023/01/21 01:43:14;;;;;;;13.77;12.55;;;;;;;2.91;69.01;102586.94;5077789;28;20060;-73
2023/01/21 01:45:39;;;;;;;16.50;15.07;;;;;;;2.91;69.22;102589.59;5077074;28;20029;-73
2023/01/21 01:48:05;;;;;;;20.90;15.80;;;;;;;2.91;69.31;102591.44;5059070;28;20430;-73
2023/01/21 01:50:34;;;;;;;13.75;12.75;;;;;;;2.91;69.19;102600.28;5075932;28;20486;-73
2023/01/21 01:53:00;;;;;;;12.13;11.13;;;;;;;2.90;69.03;102597.75;5075537;28;20033;-73
2023/01/21 01:55:29;;;;;;;20.83;16.83;;;;;;;2.90;69.08;102595.94;5077006;28;20063;-73
2023/01/21 01:57:56;;;;;;;13.50;11.32;;;;;;;2.89;69.10;102607.59;5076738;28;20036;-73
2023/01/21 02:00:23;;;;;;;22.92;16.75;;;;;;;2.89;69.15;102614.75;5075434;28;20094;-73
2023/01/21 02:05:33;;;;;;;16.52;13.45;;;;;;;2.88;69.12;102615.75;5077206;28;20094;-73
2023/01/21 02:08:00;;;;;;;22.42;17.88;;;;;;;2.87;69.04;102620.22;5075333;28;20020;-73
2023/01/21 02:10:26;;;;;;;23.75;18.15;;;;;;;2.87;69.32;102617.56;5076201;28;20450;-73
2023/01/21 02:12:51;;;;;;;16.00;14.13;;;;;;;2.87;69.04;102622.91;5076452;28;20025;-73
2023/01/21 02:15:17;;;;;;;15.30;13.68;;;;;;;2.87;68.93;102630.91;5076377;28;20032;-74
2023/01/21 02:18:01;;;;;;;25.67;18.25;;;;;;;2.86;69.25;102626.56;5075149;28;20063;-74
2023/01/21 02:20:52;;;;;;;17.05;15.50;;;;;;;2.86;69.13;102639.91;5076855;28;20359;-73
2023/01/21 02:23:17;;;;;;;17.65;16.02;;;;;;;2.85;69.13;102638.25;5076460;28;20437;-73
2023/01/21 02:26:01;;;;;;;30.70;21.55;;;;;;;2.84;69.18;102644.56;5074967;28;20028;-73
2023/01/21 02:28:52;;;;;;;27.23;17.38;;;;;;;2.84;69.27;102647.22;5076387;28;20035;-73
2023/01/21 02:31:39;;;;;;;26.80;19.33;;;;;;;2.81;68.96;102653.69;5076376;28;20026;-73
2023/01/21 02:34:18;;;;;;;16.05;14.35;;;;;;;2.80;69.23;102652.03;5076374;28;20035;-73
2023/01/21 02:36:52;;;;;;;14.15;11.57;;;;;;;2.79;68.97;102654.81;5075368;28;20494;-73
2023/01/21 02:39:39;;;;;;;22.77;17.75;;;;;;;2.78;69.00;102651.31;5074409;28;20127;-73
2023/01/21 02:42:21;;;;;;;19.90;15.70;;;;;;;2.77;68.95;102655.00;5075996;28;20059;-73
2023/01/21 02:44:55;;;;;;;28.25;18.52;;;;;;;2.78;69.15;102658.50;5075956;28;20068;-73
2023/01/21 02:47:33;;;;;;;19.42;17.40;;;;;;;2.77;69.21;102659.47;5074810;28;20464;-74
2023/01/21 02:50:11;;;;;;;24.08;18.77;;;;;;;2.76;69.29;102661.28;5075184;28;20075;-73
2023/01/21 02:52:36;;;;;;;15.98;14.48;;;;;;;2.76;68.87;102665.78;5074527;28;20051;-73
2023/01/21 02:55:02;;;;;;;16.83;15.23;;;;;;;2.76;69.04;102668.47;5075390;28;20049;-73
2023/01/21 02:57:33;;;;;;;20.38;18.25;;;;;;;2.76;69.14;102671.13;5057580;28;20028;-73
2023/01/21 03:00:01;;;;;;;14.32;12.70;;;;;;;2.76;69.32;102679.13;5075315;28;20052;-73
2023/01/21 03:02:48;;;;;;;39.33;23.23;;;;;;;2.76;69.09;102682.63;5074332;28;20468;-74
2023/01/21 03:05:30;;;;;;;17.10;15.35;;;;;;;2.75;68.84;102680.13;5075752;28;20032;-74
2023/01/21 03:08:26;;;;;;;19.23;15.95;;;;;;;2.75;69.23;102690.81;5075903;28;20526;-73
2023/01/21 03:11:08;;;;;;;20.17;18.02;;;;;;;2.74;69.17;102691.78;5056953;28;20044;-74
2023/01/21 03:16:57;;;;;;;14.80;13.55;;;;;;;2.73;68.63;102701.59;5075798;28;20177;-73
2023/01/21 03:19:31;;;;;;;19.38;13.98;;;;;;;2.72;68.97;102699.06;5075154;28;20036;-73
2023/01/21 03:22:00;;;;;;;16.90;14.95;;;;;;;2.72;68.91;102693.75;5075605;28;20043;-73
2023/01/21 03:24:26;;;;;;;16.42;14.95;;;;;;;2.71;69.08;102700.91;5075096;28;20127;-73
2023/01/21 03:26:56;;;;;;;24.23;16.55;;;;;;;2.71;68.93;102692.06;5075151;28;20052;-74
2023/01/21 03:29:25;;;;;;;19.92;16.45;;;;;;;2.71;68.96;102686.72;5075086;28;20021;-73
2023/01/21 03:31:56;;;;;;;20.23;15.43;;;;;;;2.71;69.08;102697.41;5074976;28;20423;-74
2023/01/21 03:34:26;;;;;;;13.93;12.85;;;;;;;2.71;68.92;102702.75;5075497;28;20056;-73
2023/01/21 03:37:14;;;;;;;17.73;15.48;;;;;;;2.71;69.22;102705.41;5074418;28;20039;-74
2023/01/21 03:39:43;;;;;;;16.15;14.98;;;;;;;2.71;68.86;102710.75;5074819;28;20055;-73
2023/01/21 03:42:09;;;;;;;18.35;16.23;;;;;;;2.69;68.65;102710.88;5074922;28;20031;-73
2023/01/21 03:44:35;;;;;;;16.40;14.98;;;;;;;2.70;69.06;102714.41;5056838;28;20033;-73
2023/01/21 03:47:21;;;;;;;16.52;14.93;;;;;;;2.70;68.93;102717.06;5073547;28;20456;-73
2023/01/21 03:49:56;;;;;;;14.82;13.27;;;;;;;2.69;68.95;102710.88;5074686;28;20032;-73
2023/01/21 03:52:24;;;;;;;17.40;15.80;;;;;;;2.70;68.79;102722.41;5073633;28;20036;-73
2023/01/21 03:54:50;;;;;;;13.50;12.70;;;;;;;2.69;68.79;102726.06;5074618;28;20049;-74
2023/01/21 03:57:16;;;;;;;22.35;18.20;;;;;;;2.69;68.91;102724.22;5075005;28;20275;-73
2023/01/21 03:59:41;;;;;;;24.25;18.17;;;;;;;2.69;68.93;102729.56;5056820;28;20033;-73
2023/01/21 04:02:06;;;;;;;15.10;13.95;;;;;;;2.69;69.23;102734.88;5073728;28;20041;-74
2023/01/21 04:04:32;;;;;;;15.70;14.27;;;;;;;2.68;68.85;102725.22;5072957;28;20070;-74
2023/01/21 04:06:57;;;;;;;23.60;15.35;;;;;;;2.68;68.82;102727.03;5074324;28;20522;-74
2023/01/21 04:09:23;;;;;;;15.13;13.50;;;;;;;2.67;68.77;102725.34;5057052;28;20036;-74
2023/01/21 04:11:48;;;;;;;11.43;10.77;;;;;;;2.67;68.82;102728.88;5072663;28;20029;-74
2023/01/21 04:14:13;;;;;;;20.73;16.85;;;;;;;2.67;69.09;102730.69;5074230;28;20469;-74
2023/01/21 04:16:39;;;;;;;17.65;15.93;;;;;;;2.66;68.82;102729.00;5073116;28;20059;-73
2023/01/21 04:19:04;;;;;;;13.43;12.20;;;;;;;2.66;68.95;102735.19;5074417;28;20027;-73
2023/01/21 04:21:30;;;;;;;15.70;14.10;;;;;;;2.67;69.04;102736.00;5073390;28;20032;-73
2023/01/21 04:23:55;;;;;;;19.17;13.98;;;;;;;2.66;68.86;102748.53;5074296;28;20419;-74
2023/01/21 04:26:20;;;;;;;15.32;13.98;;;;;;;2.66;69.08;102740.53;5072815;28;20101;-74
2023/01/21 04:28:46;;;;;;;24.08;17.20;;;;;;;2.65;69.08;102746.84;5072685;28;20353;-75
2023/01/21 04:31:11;;;;;;;14.77;13.05;;;;;;;2.66;68.55;102755.69;5073059;28;20029;-75
2023/01/21 04:33:36;;;;;;;15.10;10.80;;;;;;;2.65;68.61;102762.03;5073837;28;20043;-75
2023/01/21 04:36:02;;;;;;;29.20;17.33;;;;;;;2.64;68.94;102763.00;5074142;28;20032;-74
2023/01/21 04:38:27;;;;;;;19.20;15.48;;;;;;;2.62;68.78;102763.16;5056330;28;20028;-75
2023/01/21 04:40:53;;;;;;;15.82;14.25;;;;;;;2.62;68.63;102757.81;5072242;28;20032;-75
2023/01/21 04:43:18;;;;;;;18.20;16.23;;;;;;;2.63;69.00;102763.97;5055833;28;20040;-75
2023/01/21 04:45:44;;;;;;;16.23;14.75;;;;;;;2.62;68.71;102776.50;5072428;28;20036;-75
2023/01/21 04:48:09;;;;;;;22.58;15.35;;;;;;;2.63;69.11;102774.66;5072998;28;20025;-73
2023/01/21 04:50:34;;;;;;;14.38;13.23;;;;;;;2.60;68.79;102771.28;5073540;28;20480;-75
2023/01/21 04:53:00;;;;;;;13.77;12.50;;;;;;;2.62;68.69;102780.97;5072378;28;20110;-75
2023/01/21 04:55:25;;;;;;;22.27;15.98;;;;;;;2.62;68.98;102786.28;5072301;28;20463;-74
2023/01/21 04:57:51;;;;;;;20.02;17.77;;;;;;;2.60;68.98;102795.28;5073478;28;20455;-75
2023/01/21 05:00:17;;;;;;;19.77;16.92;;;;;;;2.60;68.80;102786.44;5072622;28;20033;-75
2023/01/21 05:02:42;;;;;;;17.50;14.80;;;;;;;2.60;68.65;102794.47;5073126;28;20048;-75
2023/01/21 05:05:07;;;;;;;11.32;10.65;;;;;;;2.58;68.72;102791.91;5072266;28;20066;-75
2023/01/21 05:07:33;;;;;;;13.40;12.20;;;;;;;2.59;68.60;102790.91;5073762;28;20068;-76
2023/01/21 05:09:58;;;;;;;15.20;13.65;;;;;;;2.59;68.68;102798.09;5073108;28;20032;-75
2023/01/21 05:12:24;;;;;;;13.70;12.73;;;;;;;2.59;68.97;102798.09;5073663;28;20360;-75
2023/01/21 05:14:53;;;;;;;12.73;11.80;;;;;;;2.56;68.93;102793.88;5073406;28;20082;-76
2023/01/21 05:17:19;;;;;;;17.35;15.50;;;;;;;2.57;69.01;102800.91;5073397;28;20029;-76
2023/01/21 05:19:45;;;;;;;23.60;18.52;;;;;;;2.56;68.71;102793.88;5073034;28;20057;-75
2023/01/21 05:22:10;;;;;;;13.43;12.23;;;;;;;2.57;68.66;102798.25;5072458;28;20173;-76
2023/01/21 05:24:35;;;;;;;17.88;15.30;;;;;;;2.56;68.62;102798.38;5072510;28;20040;-75
2023/01/21 05:27:01;;;;;;;26.80;21.30;;;;;;;2.56;68.64;102807.22;5072307;28;20032;-75
2023/01/21 05:29:26;;;;;;;17.33;15.30;;;;;;;2.55;68.66;102805.53;5073270;28;20436;-75
2023/01/21 05:31:52;;;;;;;18.15;16.15;;;;;;;2.55;68.67;102810.03;5073151;28;20036;-75
2023/01/21 05:34:17;;;;;;;17.85;15.38;;;;;;;2.55;68.64;102813.53;5072077;28;20036;-76
2023/01/21 05:36:42;;;;;;;14.88;13.45;;;;;;;2.54;68.70;102811.84;5073705;28;20488;-75
2023/01/21 05:39:08;;;;;;;13.27;12.32;;;;;;;2.54;68.97;102811.00;5073216;28;20039;-75
2023/01/21 05:41:33;;;;;;;23.92;14.48;;;;;;;2.54;68.74;102811.84;5071808;28;20031;-75
2023/01/21 05:43:58;;;;;;;13.57;12.68;;;;;;;2.55;68.60;102816.22;5072019;28;20071;-75
2023/01/21 05:46:24;;;;;;;10.98;10.30;;;;;;;2.53;68.51;102815.50;5073137;28;20036;-75
2023/01/21 05:48:49;;;;;;;16.33;14.80;;;;;;;2.54;68.88;102811.00;5073072;28;20078;-75
2023/01/21 05:51:14;;;;;;;15.10;13.55;;;;;;;2.52;68.82;102816.50;5073556;28;20115;-75
2023/01/21 05:53:40;;;;;;;15.77;14.55;;;;;;;2.53;68.62;102820.00;5072984;28;20036;-75
2023/01/21 05:56:06;;;;;;;11.18;10.48;;;;;;;2.52;68.62;102829.84;5071416;28;20053;-75
2023/01/21 05:58:31;;;;;;;14.48;12.95;;;;;;;2.53;68.73;102830.66;5072906;28;20115;-75
2023/01/21 06:00:57;;;;;;;14.23;12.80;;;;;;;2.51;68.74;102827.28;5071721;28;20115;-76
2023/01/21 06:03:23;;;;;;;16.88;14.35;;;;;;;2.51;68.75;102828.13;5072912;28;20070;-75
2023/01/21 06:05:49;;;;;;;17.80;16.20;;;;;;;2.51;68.89;102838.81;5071646;28;20036;-75
2023/01/21 06:08:14;;;;;;;25.70;16.40;;;;;;;2.51;68.87;102838.81;5071845;28;20068;-76
2023/01/21 06:10:42;;;;;;;14.30;12.82;;;;;;;2.51;68.44;102844.13;5071621;28;20036;-76
2023/01/21 06:13:11;;;;;;;17.60;14.80;;;;;;;2.50;68.80;102850.47;5072451;28;20032;-75
2023/01/21 06:15:37;;;;;;;18.75;15.63;;;;;;;2.49;68.59;102842.59;5073048;28;20468;-75
2023/01/21 06:18:02;;;;;;;16.77;14.98;;;;;;;2.49;68.63;102853.25;5072791;28;20036;-75
2023/01/21 06:20:30;;;;;;;17.63;15.88;;;;;;;2.50;68.66;102844.28;5072773;28;20032;-75
2023/01/21 06:22:57;;;;;;;18.50;16.23;;;;;;;2.50;68.48;102849.63;5071968;28;20033;-75
2023/01/21 06:25:26;;;;;;;25.13;19.48;;;;;;;2.49;68.71;102855.91;5072849;28;20123;-76
2023/01/21 06:27:54;;;;;;;;;;;;;;;2.49;68.74;102864.75;5074070;28;20480;-75
2023/01/21 06:30:20;;;;;;;12.68;11.50;;;;;;;2.47;68.61;102861.41;5076350;28;19913;-75
2023/01/21 06:32:46;;;;;;;16.85;15.27;;;;;;;2.45;68.35;102860.69;5076040;28;20066;-75
2023/01/21 06:35:11;;;;;;;13.50;12.57;;;;;;;2.45;68.55;102867.88;5075904;28;20121;-76
2023/01/21 06:37:37;;;;;;;13.38;11.85;;;;;;;2.46;68.62;102866.88;5076599;28;20035;-76
2023/01/21 06:40:03;;;;;;;12.10;11.20;;;;;;;2.45;68.72;102875.88;5075416;28;20047;-75
2023/01/21 06:42:28;;;;;;;11.32;10.43;;;;;;;2.45;68.61;102881.22;5076462;28;20032;-76
2023/01/21 06:44:54;;;;;;;20.15;16.42;;;;;;;2.44;68.75;102877.66;5075301;28;20116;-76
2023/01/21 06:47:19;;;;;;;16.83;14.20;;;;;;;2.44;68.58;102884.84;5074786;28;20060;-76
2023/01/21 06:49:44;;;;;;;17.55;15.70;;;;;;;2.43;68.49;102884.00;5075934;28;20025;-75
2023/01/21 06:52:10;;;;;;;14.27;12.18;;;;;;;2.44;68.47;102895.50;5074541;28;21896;-75
2023/01/21 06:54:35;;;;;;;15.05;13.75;;;;;;;2.44;68.38;102895.50;5075833;28;20049;-75
2023/01/21 06:57:01;;;;;;;20.30;13.82;;;;;;;2.44;68.69;102901.69;5074606;28;20033;-76
2023/01/21 06:59:26;;;;;;;13.35;12.48;;;;;;;2.43;68.40;102900.00;5075705;28;20028;-76
2023/01/21 07:01:52;;;;;;;11.43;10.65;;;;;;;2.43;68.63;102915.16;5058211;28;20033;-75
2023/01/21 07:04:18;;;;;;;14.45;13.13;;;;;;;2.43;68.59;102918.66;5075617;28;20060;-76
2023/01/21 07:06:43;;;;;;;10.65;10.05;;;;;;;2.43;68.53;102920.50;5074392;28;20067;-76
2023/01/21 07:09:08;;;;;;;14.05;12.93;;;;;;;2.42;68.45;102913.47;5074545;28;20092;-75
2023/01/21 07:11:34;;;;;;;13.77;11.80;;;;;;;2.42;68.55;102924.13;5075177;28;20387;-76
2023/01/21 07:13:59;;;;;;;14.30;12.90;;;;;;;2.41;68.21;102925.97;5074037;28;20032;-76
2023/01/21 07:16:25;;;;;;;12.60;11.48;;;;;;;2.42;68.51;102929.47;5075656;28;20086;-76
2023/01/21 07:18:51;;;;;;;19.45;13.73;;;;;;;2.42;68.74;102930.34;5074157;28;20472;-75
2023/01/21 07:21:16;;;;;;;12.05;11.00;;;;;;;2.41;68.43;102936.63;5075358;28;20036;-75
2023/01/21 07:23:42;;;;;;;12.85;11.88;;;;;;;2.41;68.62;102949.13;5075233;28;20112;-75
2023/01/21 07:26:07;;;;;;;16.33;14.77;;;;;;;2.41;68.72;102946.47;5075134;28;20028;-76
2023/01/21 07:28:33;;;;;;;18.35;14.65;;;;;;;2.40;68.30;102952.78;5073974;28;20362;-75
2023/01/21 07:30:59;;;;;;;15.35;13.88;;;;;;;2.39;68.36;102951.91;5075802;28;20032;-76
2023/01/21 07:33:25;;;;;;;15.48;12.63;;;;;;;2.39;68.57;102967.91;5073600;28;20032;-76
2023/01/21 07:35:50;;;;;;;18.70;10.85;;;;;;;2.38;68.45;102961.75;5075165;28;20024;-76
2023/01/21 07:38:16;;;;;;;12.40;11.23;;;;;;;2.38;68.67;102972.41;5056435;28;20429;-75
2023/01/21 07:40:41;;;;;;;10.38;9.77;;;;;;;2.38;68.60;102982.25;5073394;28;20029;-75
2023/01/21 07:43:08;;;;;;;14.77;13.48;;;;;;;2.37;68.29;102973.41;5073487;28;20036;-75
2023/01/21 07:45:34;;;;;;;16.17;11.80;;;;;;;2.37;68.33;102984.06;5074696;28;20074;-75
2023/01/21 07:47:59;;;;;;;16.50;14.95;;;;;;;2.36;68.59;102986.88;5074745;28;20060;-76
2023/01/21 07:50:24;;;;;;;14.35;13.35;;;;;;;2.36;68.28;102998.38;5073901;28;20024;-75
2023/01/21 07:52:52;;;;;;;13.00;12.13;;;;;;;2.36;68.55;102995.72;5056725;28;20486;-75
2023/01/21 07:55:18;;;;;;;12.68;11.88;;;;;;;2.36;68.56;103001.03;5072859;28;20052;-75
2023/01/21 07:57:43;;;;;;;10.57;9.85;;;;;;;2.36;68.52;103003.72;5074495;28;20104;-75
2023/01/21 08:00:09;;;;;;;30.50;18.08;;;;;;;2.35;68.53;103002.03;5073300;28;20491;-76
2023/01/21 08:02:35;;;;;;;18.20;15.48;;;;;;;2.36;68.17;103017.03;5073562;28;20064;-76
2023/01/21 08:05:00;;;;;;;11.32;10.45;;;;;;;2.34;68.29;103013.69;5073211;28;20033;-75
2023/01/21 08:07:26;;;;;;;11.70;10.80;;;;;;;2.35;68.46;103020.69;5056756;28;20411;-75
2023/01/21 08:09:51;;;;;;;12.63;11.77;;;;;;;2.35;68.20;103023.38;5056840;28;20032;-76
2023/01/21 08:12:16;;;;;;;10.77;10.18;;;;;;;2.34;68.20;103026.16;5072833;28;20110;-76
2023/01/21 08:14:42;;;;;;;12.77;11.98;;;;;;;2.34;68.31;103029.69;5074117;28;20032;-76
2023/01/21 08:17:07;;;;;;;13.02;11.60;;;;;;;2.34;68.26;103036.81;5056412;28;20107;-76
2023/01/21 08:19:33;;;;;;;13.60;12.50;;;;;;;2.33;68.51;103029.81;5072752;28;20388;-75
2023/01/21 08:21:58;;;;;;;14.90;13.55;;;;;;;2.32;68.52;103033.47;5072808;28;20032;-76
2023/01/21 08:24:23;;;;;;;14.60;13.15;;;;;;;2.33;68.19;103035.97;5073836;28;20098;-75
2023/01/21 08:26:49;;;;;;;12.60;11.43;;;;;;;2.33;68.27;103043.16;5074157;28;20033;-76
2023/01/21 08:29:14;;;;;;;14.57;13.38;;;;;;;2.32;68.43;103044.97;5073931;28;20033;-75
2023/01/21 08:31:39;;;;;;;12.98;12.15;;;;;;;2.31;67.98;103063.75;5072717;28;20035;-75
2023/01/21 08:34:05;;;;;;;17.73;13.38;;;;;;;2.30;68.27;103056.75;5073663;28;20390;-75
2023/01/21 08:36:30;;;;;;;20.60;14.57;;;;;;;2.31;68.58;103056.59;5073849;28;20036;-76
2023/01/21 08:39:04;;;;;;;27.48;18.00;;;;;;;2.31;68.05;103061.94;5056042;28;20090;-75
2023/01/21 08:41:30;;;;;;;18.25;15.63;;;;;;;2.31;68.52;103061.94;5074060;28;20078;-75
2023/01/21 08:43:55;;;;;;;15.05;13.73;;;;;;;2.30;68.32;103065.59;5072570;28;20392;-75
2023/01/21 08:46:21;;;;;;;23.35;13.32;;;;;;;2.30;68.26;103056.75;5072394;28;20176;-74
2023/01/21 08:48:46;;;;;;;15.00;13.35;;;;;;;2.31;68.23;103063.75;5073558;28;20036;-75
2023/01/21 08:51:11;;;;;;;15.57;13.98;;;;;;;2.30;68.07;103065.59;5072966;28;20138;-75
2023/01/21 08:53:37;;;;;;;14.95;13.55;;;;;;;2.30;68.45;103073.59;5055229;28;20477;-75
2023/01/21 08:56:03;;;;;;;17.58;15.13;;;;;;;2.30;68.19;103078.94;5072130;28;20049;-76
2023/01/21 08:58:30;;;;;;;24.27;18.10;;;;;;;2.29;68.53;103071.91;5072614;28;20032;-76
2023/01/21 09:00:56;;;;;;;15.98;13.40;;;;;;;2.30;68.45;103089.59;5073489;28;20032;-74
2023/01/21 09:03:22;;;;;;;11.63;10.68;;;;;;;2.29;68.48;103092.38;5072122;28;20029;-75
2023/01/21 09:05:50;;;;;;;22.55;18.40;;;;;;;2.29;68.53;103093.25;5073388;28;20071;-74
2023/01/21 09:08:16;;;;;;;28.40;20.13;;;;;;;2.29;68.18;103098.59;5072010;28;20423;-75
2023/01/21 09:11:00;;;;;;;18.70;16.65;;;;;;;2.30;68.28;103102.09;5071964;28;20035;-75
2023/01/21 09:13:30;;;;;;;19.40;15.45;;;;;;;2.29;68.44;103109.25;5072166;28;20028;-75
2023/01/21 09:15:55;;;;;;;26.40;18.77;;;;;;;2.28;68.28;103115.53;5073148;28;20033;-75
2023/01/21 09:18:21;;;;;;;19.95;15.88;;;;;;;2.28;68.03;103112.88;5072700;28;20089;-75
2023/01/21 09:20:47;;;;;;;15.27;13.50;;;;;;;2.28;68.53;103115.53;5073041;28;20075;-74
2023/01/21 09:23:24;;;;;;;25.52;17.20;;;;;;;2.28;68.21;103120.03;5072931;28;20098;-75
2023/01/21 09:25:52;;;;;;;24.20;17.60;;;;;;;2.28;68.25;103120.03;5071692;28;20032;-75
2023/01/21 09:28:18;;;;;;;14.40;12.77;;;;;;;2.25;68.01;103126.47;5073012;28;20032;-75
2023/01/21 09:30:44;;;;;;;34.08;20.08;;;;;;;2.27;68.50;103129.00;5073411;28;20532;-75
2023/01/21 09:33:10;;;;;;;28.00;19.20;;;;;;;2.26;68.41;103125.50;5072044;28;20044;-77
2023/01/21 09:35:35;;;;;;;22.63;16.80;;;;;;;2.26;68.17;103132.66;5071506;28;20064;-76
2023/01/21 09:38:01;;;;;;;24.05;16.60;;;;;;;2.26;68.51;103136.16;5072925;28;20163;-75
2023/01/21 09:40:26;;;;;;;23.17;17.60;;;;;;;2.25;68.23;103138.97;5072266;28;20039;-75
2023/01/21 09:42:51;;;;;;;14.73;13.50;;;;;;;2.25;68.39;103138.97;5072561;28;20040;-76
2023/01/21 09:45:18;;;;;;;15.20;13.93;;;;;;;2.27;68.14;103145.00;5072230;28;20431;-76
2023/01/21 09:47:47;;;;;;;32.17;21.63;;;;;;;2.25;68.28;103139.81;5071548;28;20374;-75
2023/01/21 09:50:16;;;;;;;31.40;20.00;;;;;;;2.27;68.03;103148.53;5072599;28;20037;-77
2023/01/21 09:52:52;;;;;;;;;;;;;;;2.27;68.23;103145.88;5072669;28;20024;-77
2023/01/21 09:55:24;;;;;;;21.13;14.43;;;;;;;2.25;68.32;103146.97;5072728;28;19920;-76
2023/01/21 09:58:14;;;;;;;19.02;16.85;;;;;;;2.25;68.50;103146.97;5073091;28;20108;-76
2023/01/21 10:01:12;;;;;;;13.27;12.13;;;;;;;2.25;68.17;103152.31;5071729;28;20440;-75
2023/01/21 10:03:53;;;;;;;13.88;12.88;;;;;;;2.25;68.09;103160.31;5059281;28;20074;-76
2023/01/21 10:06:27;;;;;;;39.20;20.95;;;;;;;2.27;68.38;103161.88;5076683;28;20029;-75
2023/01/21 10:09:23;;;;;;;19.83;16.80;;;;;;;2.25;68.40;103158.47;5076582;28;20063;-76
2023/01/21 10:12:07;;;;;;;27.27;19.60;;;;;;;2.24;68.13;103162.09;5075347;28;20402;-76
2023/01/21 10:15:09;;;;;;;20.95;17.58;;;;;;;2.24;68.24;103155.94;5075784;28;20082;-75
2023/01/21 10:17:56;;;;;;;13.05;11.90;;;;;;;2.24;68.13;103162.09;5033975;28;20608;-75
2023/01/21 10:20:27;;;;;;;36.58;22.70;;;;;;;2.24;68.40;103167.44;5073768;28;20047;-78
2023/01/21 10:23:10;;;;;;;27.50;18.20;;;;;;;2.24;68.31;103164.75;5076343;28;20064;-77
2023/01/21 10:25:36;;;;;;;30.73;19.80;;;;;;;2.24;68.29;103155.94;5075026;28;20456;-77
2023/01/21 10:28:31;;;;;;;26.38;16.77;;;;;;;2.25;68.53;103166.47;5076442;28;20039;-76
2023/01/21 10:31:16;;;;;;;18.83;14.35;;;;;;;2.25;68.63;103170.97;5045121;28;20157;-75
2023/01/21 10:33:42;;;;;;;28.70;19.08;;;;;;;2.25;68.55;103173.63;5075118;28;20028;-76
2023/01/21 10:36:29;;;;;;;46.25;22.80;;;;;;;2.26;68.44;103176.16;5074676;28;20468;-76
2023/01/21 10:39:11;;;;;;;17.48;15.52;;;;;;;2.27;68.52;103183.19;5076475;28;20021;-76
2023/01/21 10:41:45;;;;;;;29.70;16.80;;;;;;;2.28;68.36;103181.38;5076364;28;20028;-76
2023/01/21 10:44:31;;;;;;;18.95;17.00;;;;;;;2.28;68.21;103182.22;5074669;28;20468;-77
2023/01/21 10:47:38;;;;;;;36.83;21.95;;;;;;;2.29;68.64;103183.06;5076202;28;20104;-78
2023/01/21 10:50:22;;;;;;;32.80;19.60;;;;;;;2.29;68.61;103188.38;5017009;28;20470;-76
2023/01/21 10:52:57;;;;;;;20.25;15.30;;;;;;;2.28;68.36;103178.72;5073900;28;20534;-77
2023/01/21 10:55:44;;;;;;;32.05;18.27;;;;;;;2.28;68.32;103184.88;5072000;28;20080;-78
2023/01/21 10:58:26;;;;;;;19.73;14.82;;;;;;;2.29;68.35;103186.59;5075860;28;20115;-80
2023/01/21 11:00:54;;;;;;;35.22;20.30;;;;;;;2.28;68.40;103192.88;5074919;28;20060;-80
2023/01/21 11:03:28;;;;;;;40.92;20.98;;;;;;;2.30;68.44;103195.44;5075408;28;20116;-79
2023/01/21 11:05:54;;;;;;;47.20;24.58;;;;;;;2.31;68.50;103207.78;5074659;28;20032;-80
2023/01/21 11:08:22;;;;;;;46.13;22.52;;;;;;;2.31;68.32;103205.13;5073932;28;20039;-79
2023/01/21 11:10:54;;;;;;;44.80;24.80;;;;;;;2.30;68.26;103204.28;5075520;28;20026;-80
2023/01/21 11:13:19;;;;;;;43.88;22.73;;;;;;;2.30;68.37;103209.59;5073858;28;20024;-78
2023/01/21 11:15:54;;;;;;;11.90;11.00;;;;;;;2.30;68.11;103203.44;5073819;28;20115;-78
2023/01/21 11:18:32;;;;;;;47.72;25.67;;;;;;;2.30;68.33;103204.28;5074064;28;20031;-78
2023/01/21 11:21:01;;;;;;;34.60;20.67;;;;;;;2.30;68.55;103201.59;5075199;28;20032;-78
2023/01/21 11:23:34;;;;;;;18.90;16.38;;;;;;;2.29;68.31;103191.94;5075841;28;20032;-79
2023/01/21 11:26:05;;;;;;;21.23;13.75;;;;;;;2.30;68.63;103192.78;5073848;28;20078;-80
2023/01/21 11:28:31;;;;;;;19.02;17.35;;;;;;;2.31;68.45;103189.94;5074947;28;20033;-78
2023/01/21 11:31:11;;;;;;;27.58;14.73;;;;;;;2.32;68.32;103194.34;5073639;28;20029;-78